createdAt,value
2023-05-25T00:02:16.532Z,11.87
2023-05-25T00:05:18.461Z,9.20
2023-05-25T00:08:20.156Z,12.97
2023-05-25T00:11:23.465Z,13.80
2023-05-25T00:14:25.323Z,11.07
2023-05-25T00:17:30.021Z,13.10
2023-05-25T00:20:33.366Z,13.17
2023-05-25T00:23:35.570Z,9.23
2023-05-25T00:26:37.431Z,10.07
2023-05-25T00:29:39.054Z,11.47
2023-05-25T00:32:42.992Z,8.77
2023-05-25T00:35:45.241Z,9.30
2023-05-25T00:38:48.459Z,8.23
2023-05-25T00:41:50.157Z,10.33
2023-05-25T00:44:51.875Z,8.97
2023-05-25T00:47:54.382Z,9.30
2023-05-25T00:51:00.105Z,8.13
2023-05-25T00:54:02.288Z,9.23
2023-05-25T00:57:06.403Z,9.63
2023-05-25T01:00:11.625Z,13.47
2023-05-25T01:03:17.903Z,10.53
2023-05-25T01:06:22.269Z,12.60
2023-05-25T01:09:24.898Z,8.93
2023-05-25T01:12:28.947Z,10.63
2023-05-25T01:15:30.893Z,10.60
2023-05-25T01:18:33.854Z,10.57
2023-05-25T01:21:38.102Z,10.17
2023-05-25T01:24:43.066Z,10.40
2023-05-25T01:27:48.786Z,9.03
2023-05-25T01:30:50.982Z,10.03
2023-05-25T01:33:53.787Z,10.73
2023-05-25T01:36:56.034Z,9.07
2023-05-25T01:39:57.820Z,9.90
2023-05-25T01:42:59.567Z,9.50
2023-05-25T01:46:06.790Z,8.10
2023-05-25T01:49:14.640Z,12.60
2023-05-25T01:52:22.199Z,9.43
2023-05-25T01:55:25.371Z,9.37
2023-05-25T01:58:28.146Z,11.17
2023-05-25T02:01:31.218Z,9.40
2023-05-25T02:04:33.759Z,9.27
2023-05-25T02:07:36.044Z,8.97
2023-05-25T02:10:37.710Z,12.90
2023-05-25T02:13:40.035Z,8.60
2023-05-25T02:16:42.724Z,9.33
2023-05-25T02:19:45.120Z,10.03
2023-05-25T02:22:46.801Z,9.23
2023-05-25T02:25:48.540Z,10.10
2023-05-25T02:28:51.758Z,9.73
2023-05-25T02:31:53.477Z,11.73
2023-05-25T02:34:56.198Z,11.67
2023-05-25T02:37:58.217Z,10.43
2023-05-25T02:41:00.035Z,9.43
2023-05-25T02:44:01.776Z,9.87
2023-05-25T02:47:03.673Z,11.93
2023-05-25T02:50:05.891Z,11.47
2023-05-25T02:53:15.004Z,9.57
2023-05-25T02:56:16.900Z,9.37
2023-05-25T02:59:18.629Z,12.63
2023-05-25T03:02:25.526Z,13.27
2023-05-25T03:05:27.956Z,13.10
2023-05-25T03:08:30.732Z,8.93
2023-05-25T03:11:34.210Z,11.30
2023-05-25T03:14:38.211Z,12.43
2023-05-25T03:17:40.354Z,10.00
2023-05-25T03:20:42.121Z,8.97
2023-05-25T03:23:43.970Z,12.30
2023-05-25T03:26:46.124Z,10.23
2023-05-25T03:29:50.174Z,9.23
2023-05-25T03:32:52.570Z,9.97
2023-05-25T03:35:54.403Z,11.67
2023-05-25T03:38:56.169Z,9.97
2023-05-25T03:41:58.535Z,10.90
2023-05-25T03:45:00.386Z,9.23
2023-05-25T03:48:02.154Z,9.40
2023-05-25T03:51:05.932Z,12.17
2023-05-25T03:54:07.702Z,11.50
2023-05-25T03:57:09.460Z,9.60
2023-05-25T04:00:11.597Z,12.17
2023-05-25T04:03:17.650Z,10.70
2023-05-25T04:06:19.566Z,9.60
2023-05-25T04:09:23.160Z,9.20
2023-05-25T04:12:24.841Z,10.30
2023-05-25T04:15:26.881Z,8.17
2023-05-25T04:18:36.076Z,11.80
2023-05-25T04:21:37.742Z,7.77
2023-05-25T04:24:41.531Z,8.40
2023-05-25T04:27:46.735Z,8.50
2023-05-25T04:30:59.995Z,10.77
2023-05-25T04:34:15.093Z,7.13
2023-05-25T04:37:40.976Z,8.33
2023-05-25T04:40:48.499Z,7.67
2023-05-25T04:44:06.879Z,8.20
2023-05-25T04:47:13.672Z,12.73
2023-05-25T04:50:15.393Z,10.83
2023-05-25T04:53:17.609Z,11.13
2023-05-25T04:56:22.269Z,7.77
2023-05-25T04:59:24.053Z,13.63
2023-05-25T05:02:26.086Z,11.03
2023-05-25T05:05:28.632Z,8.80
2023-05-25T05:08:33.986Z,7.30
2023-05-25T05:11:35.781Z,12.60
2023-05-25T05:14:38.551Z,8.30
2023-05-25T05:17:40.402Z,7.37
2023-05-25T05:20:43.197Z,12.20
2023-05-25T05:23:45.121Z,9.43
2023-05-25T05:26:57.096Z,7.43
2023-05-25T05:30:09.684Z,11.27
2023-05-25T05:33:11.670Z,10.80
2023-05-25T05:36:19.421Z,5.60
2023-05-25T05:39:21.111Z,8.13
2023-05-25T05:42:23.378Z,11.33
2023-05-25T05:45:25.090Z,6.70
2023-05-25T05:48:26.810Z,12.10
2023-05-25T05:51:29.139Z,9.73
2023-05-25T05:54:30.944Z,10.00
2023-05-25T05:57:36.431Z,23.33
2023-05-25T06:00:38.204Z,11.38
2023-05-25T06:03:41.829Z,12.43
2023-05-25T06:06:45.381Z,9.40
2023-05-25T06:09:47.208Z,8.25
2023-05-25T06:12:48.915Z,7.20
2023-05-25T06:15:51.010Z,7.00
2023-05-25T06:18:57.201Z,5.45
2023-05-25T06:21:58.962Z,8.80
2023-05-25T06:25:03.904Z,9.23
2023-05-25T06:28:05.678Z,10.93
2023-05-25T06:31:07.459Z,4.50
2023-05-25T06:34:09.193Z,8.27
2023-05-25T06:37:11.132Z,6.15
2023-05-25T06:40:13.118Z,12.32
2023-05-25T06:43:14.860Z,4.70
2023-05-25T06:46:24.060Z,8.32
2023-05-25T06:49:26.166Z,6.85
2023-05-25T06:52:31.563Z,7.05
2023-05-25T06:55:33.316Z,8.60
2023-05-25T06:58:35.048Z,7.30
2023-05-25T07:01:36.936Z,6.15
2023-05-25T07:04:38.717Z,7.63
2023-05-25T07:07:40.408Z,6.18
2023-05-25T07:10:42.097Z,5.65
2023-05-25T07:13:43.771Z,9.32
2023-05-25T07:16:45.700Z,8.68
2023-05-25T07:19:48.821Z,8.98
2023-05-25T07:22:51.113Z,7.40
2023-05-25T07:25:52.829Z,7.43
2023-05-25T07:28:54.536Z,8.05
2023-05-25T07:31:56.251Z,6.50
2023-05-25T07:34:58.183Z,6.25
2023-05-25T07:38:00.716Z,5.90
2023-05-25T07:41:02.425Z,8.85
2023-05-25T07:44:04.572Z,9.65
2023-05-25T07:47:07.141Z,6.57
2023-05-25T07:50:09.197Z,7.57
2023-05-25T07:53:11.009Z,4.97
2023-05-25T07:56:12.864Z,6.57
2023-05-25T07:59:14.733Z,7.97
2023-05-25T08:02:16.818Z,5.65
2023-05-25T08:05:18.616Z,5.90
2023-05-25T08:08:20.465Z,5.25
2023-05-25T08:11:24.067Z,9.52
2023-05-25T08:14:25.842Z,5.80
2023-05-25T08:17:27.523Z,5.80
2023-05-25T08:20:29.453Z,5.68
2023-05-25T08:23:31.903Z,5.63
2023-05-25T08:26:52.809Z,6.63
2023-05-25T08:29:56.125Z,8.57
2023-05-25T08:32:57.842Z,8.68
2023-05-25T08:35:59.740Z,8.00
2023-05-25T08:39:01.827Z,9.43
2023-05-25T08:42:03.951Z,6.50
2023-05-25T08:45:05.802Z,7.32
2023-05-25T08:48:10.902Z,5.75
2023-05-25T08:51:14.728Z,6.88
2023-05-25T08:54:18.182Z,6.63
2023-05-25T08:57:29.507Z,10.93
2023-05-25T09:00:42.560Z,5.20
2023-05-25T09:03:45.632Z,7.80
2023-05-25T09:06:57.302Z,5.72
2023-05-25T09:10:08.906Z,8.48
2023-05-25T09:13:21.286Z,5.80
2023-05-25T09:16:26.024Z,10.65
2023-05-25T09:19:27.774Z,6.97
2023-05-25T09:22:29.515Z,10.40
2023-05-25T09:25:31.968Z,7.85
2023-05-25T09:28:33.738Z,5.97
2023-05-25T09:31:36.288Z,5.32
2023-05-25T09:34:38.037Z,7.57
2023-05-25T09:37:41.071Z,6.78
2023-05-25T09:40:43.286Z,8.40
2023-05-25T09:43:54.769Z,6.45
2023-05-25T09:47:07.261Z,8.45
2023-05-25T09:50:09.551Z,6.80
2023-05-25T09:53:11.250Z,7.40
2023-05-25T09:56:13.003Z,4.90
2023-05-25T09:59:14.929Z,10.63
2023-05-25T10:02:16.744Z,8.03
2023-05-25T10:05:18.545Z,6.57
2023-05-25T10:08:21.751Z,6.77
2023-05-25T10:11:24.885Z,5.33
2023-05-25T10:14:29.359Z,7.70
2023-05-25T10:17:32.124Z,7.30
2023-05-25T10:20:35.341Z,7.03
2023-05-25T10:23:41.797Z,7.33
2023-05-25T10:26:47.041Z,7.93
2023-05-25T10:29:49.672Z,7.97
2023-05-25T10:32:51.794Z,7.83
2023-05-25T10:38:58.925Z,4.20
2023-05-25T10:42:02.276Z,7.13
2023-05-25T10:45:08.566Z,5.05
2023-05-25T10:48:10.897Z,6.17
2023-05-25T10:51:12.986Z,4.43
2023-05-25T10:54:15.352Z,6.32
2023-05-25T10:57:22.897Z,4.47
2023-05-25T11:00:24.668Z,5.80
2023-05-25T11:03:45.340Z,10.77
2023-05-25T11:06:47.472Z,5.00
2023-05-25T11:09:56.792Z,4.30
2023-05-25T11:13:18.447Z,4.70
2023-05-25T11:16:20.461Z,7.77
2023-05-25T11:19:22.338Z,7.33
2023-05-25T11:22:30.735Z,4.53
2023-05-25T11:25:37.178Z,5.07
2023-05-25T11:28:46.526Z,8.73
2023-05-25T11:31:55.318Z,8.57
2023-05-25T11:34:58.403Z,7.27
2023-05-25T11:38:00.658Z,5.80
2023-05-25T11:41:03.781Z,6.53
2023-05-25T11:44:08.621Z,8.20
2023-05-25T11:47:13.495Z,8.03
2023-05-25T11:50:16.036Z,10.70
2023-05-25T11:53:17.764Z,9.60
2023-05-25T11:56:34.136Z,11.50
2023-05-25T11:59:39.619Z,10.13
2023-05-25T12:02:44.526Z,8.77
2023-05-25T12:05:46.375Z,11.30
2023-05-25T12:08:48.175Z,6.07
2023-05-25T12:11:50.099Z,7.77
2023-05-25T12:14:51.861Z,9.90
2023-05-25T12:17:54.504Z,8.37
2023-05-25T12:20:57.283Z,9.70
2023-05-25T12:23:59.551Z,8.33
2023-05-25T12:27:02.494Z,7.70
2023-05-25T12:30:05.607Z,3.27
2023-05-25T12:33:07.846Z,4.67
2023-05-25T12:36:09.979Z,6.73
2023-05-25T12:39:14.025Z,4.50
2023-05-25T12:42:16.421Z,7.07
2023-05-25T12:45:18.248Z,11.57
2023-05-25T12:48:25.904Z,7.87
2023-05-25T12:51:37.517Z,9.40
2023-05-25T12:54:41.081Z,10.60
2023-05-25T12:57:42.746Z,9.00
2023-05-25T13:00:44.653Z,9.63
2023-05-25T13:03:46.547Z,12.07
2023-05-25T13:06:48.315Z,7.87
2023-05-25T13:09:50.068Z,11.17
2023-05-25T13:12:52.369Z,9.60
2023-05-25T13:15:54.070Z,10.63
2023-05-25T13:18:55.862Z,8.40
2023-05-25T13:21:57.861Z,9.53
2023-05-25T13:24:59.664Z,9.00
2023-05-25T13:28:01.366Z,9.87
2023-05-25T13:31:03.343Z,8.10
2023-05-25T13:34:05.095Z,8.67
2023-05-25T13:37:06.909Z,7.57
2023-05-25T13:40:08.856Z,7.97
2023-05-25T13:43:10.626Z,9.63
2023-05-25T13:46:25.875Z,9.83
2023-05-25T13:49:34.164Z,6.90
2023-05-25T13:52:37.093Z,10.80
2023-05-25T13:55:41.727Z,11.60
2023-05-25T13:58:44.325Z,7.27
2023-05-25T14:01:46.797Z,9.60
2023-05-25T14:04:48.553Z,5.87
2023-05-25T14:07:50.365Z,8.97
2023-05-25T14:10:52.116Z,9.23
2023-05-25T14:13:53.876Z,9.93
2023-05-25T14:16:55.663Z,8.60
2023-05-25T14:19:58.574Z,10.70
2023-05-25T14:23:01.912Z,16.37
2023-05-25T14:26:03.633Z,15.23
2023-05-25T14:29:05.392Z,6.83
2023-05-25T14:32:07.093Z,10.03
2023-05-25T14:35:09.037Z,15.30
2023-05-25T14:38:10.796Z,18.13
2023-05-25T14:41:12.558Z,12.87
2023-05-25T14:44:14.242Z,10.17
2023-05-25T14:47:16.107Z,9.30
2023-05-25T14:50:17.877Z,7.97
2023-05-25T14:53:19.851Z,8.57
2023-05-25T14:56:21.693Z,11.33
2023-05-25T14:59:23.354Z,10.30
2023-05-25T15:02:25.291Z,9.77
2023-05-25T15:05:26.989Z,11.10
2023-05-25T15:08:28.646Z,11.33
2023-05-25T15:11:30.453Z,13.93
2023-05-25T15:14:32.120Z,12.57
2023-05-25T15:17:33.848Z,13.67
2023-05-25T15:20:38.350Z,17.90
2023-05-25T15:23:45.774Z,17.93
2023-05-25T15:26:49.885Z,13.57
2023-05-25T15:29:52.050Z,9.50
2023-05-25T15:32:56.510Z,11.27
2023-05-25T15:35:58.295Z,9.13
2023-05-25T15:39:00.206Z,9.80
2023-05-25T15:42:02.392Z,7.43
2023-05-25T15:45:09.656Z,8.83
2023-05-25T15:48:11.464Z,11.30
2023-05-25T15:51:16.151Z,11.63
2023-05-25T15:54:22.965Z,7.70
2023-05-25T15:57:24.939Z,9.97
2023-05-25T16:00:27.454Z,10.43
2023-05-25T16:03:29.743Z,10.30
2023-05-25T16:06:34.765Z,11.30
2023-05-25T16:09:38.831Z,14.43
2023-05-25T16:12:41.185Z,16.90
2023-05-25T16:15:43.383Z,7.03
2023-05-25T16:18:45.929Z,10.13
2023-05-25T16:21:47.721Z,7.83
2023-05-25T16:24:49.500Z,11.40
2023-05-25T16:27:54.453Z,11.70
2023-05-25T16:30:58.963Z,11.20
2023-05-25T16:34:04.136Z,9.57
2023-05-25T16:37:08.802Z,15.27
2023-05-25T16:40:18.176Z,16.20
2023-05-25T16:43:22.069Z,14.17
2023-05-25T16:46:27.941Z,13.53
2023-05-25T16:49:29.853Z,11.57
2023-05-25T16:52:34.814Z,11.03
2023-05-25T16:55:39.128Z,12.57
2023-05-25T16:58:44.217Z,14.80
2023-05-25T17:01:47.021Z,10.70
2023-05-25T17:04:48.735Z,25.40
2023-05-25T17:07:50.488Z,13.13
2023-05-25T17:10:52.488Z,13.83
2023-05-25T17:13:54.149Z,14.53
2023-05-25T17:16:55.890Z,11.30
2023-05-25T17:19:57.658Z,14.10
2023-05-25T17:22:59.342Z,12.57
2023-05-25T17:26:00.972Z,11.40
2023-05-25T17:29:02.675Z,10.67
2023-05-25T17:32:04.528Z,12.13
2023-05-25T17:35:06.609Z,12.03
2023-05-25T17:38:08.285Z,12.67
2023-05-25T17:41:10.073Z,11.97
2023-05-25T17:44:11.713Z,9.27
2023-05-25T17:47:13.386Z,8.50
2023-05-25T17:50:15.166Z,14.33
2023-05-25T17:53:16.908Z,17.70
2023-05-25T17:56:18.562Z,16.37
2023-05-25T17:59:20.208Z,10.63
2023-05-25T18:02:22.868Z,23.83
2023-05-25T18:05:24.710Z,19.10
2023-05-25T18:08:26.408Z,16.53
2023-05-25T18:11:29.294Z,12.33
2023-05-25T18:14:35.295Z,15.23
2023-05-25T18:17:37.080Z,29.63
2023-05-25T18:20:38.833Z,35.63
2023-05-25T18:23:40.527Z,17.07
2023-05-25T18:26:42.350Z,15.43
2023-05-25T18:29:44.031Z,16.47
2023-05-25T18:32:45.693Z,14.33
2023-05-25T18:35:47.486Z,15.43
2023-05-25T18:38:49.286Z,12.77
2023-05-25T18:41:51.103Z,16.00
2023-05-25T18:44:52.719Z,15.63
2023-05-25T18:47:54.505Z,11.67
2023-05-25T18:50:56.221Z,13.43
2023-05-25T18:53:58.867Z,15.33
2023-05-25T18:57:01.678Z,15.80
2023-05-25T19:00:03.982Z,15.80
2023-05-25T19:03:06.910Z,18.20
2023-05-25T19:06:08.633Z,17.60
2023-05-25T19:09:10.588Z,16.40
2023-05-25T19:12:12.291Z,16.63
2023-05-25T19:15:13.930Z,15.43
2023-05-25T19:18:15.809Z,20.40
2023-05-25T19:21:17.525Z,18.33
2023-05-25T19:24:19.309Z,17.83
2023-05-25T19:27:21.165Z,20.07
2023-05-25T19:30:22.852Z,14.27
2023-05-25T19:33:24.489Z,16.53
2023-05-25T19:36:26.362Z,16.67
2023-05-25T19:39:28.229Z,16.70
2023-05-25T19:42:29.883Z,13.00
2023-05-25T19:45:31.655Z,12.60
2023-05-25T19:48:33.361Z,21.40
2023-05-25T19:51:34.975Z,20.40
2023-05-25T19:54:37.160Z,22.07
2023-05-25T19:57:38.926Z,18.10
2023-05-25T20:00:41.001Z,17.20
2023-05-25T20:03:44.769Z,14.80
2023-05-25T20:06:46.732Z,13.80
2023-05-25T20:09:48.508Z,12.03
2023-05-25T20:12:50.179Z,13.50
2023-05-25T20:15:54.799Z,11.60
2023-05-25T20:18:58.625Z,12.03
2023-05-25T20:22:04.467Z,13.17
2023-05-25T20:25:06.383Z,12.47
2023-05-25T20:28:08.056Z,11.70
2023-05-25T20:31:12.024Z,12.57
2023-05-25T20:34:13.847Z,9.17
2023-05-25T20:37:17.748Z,11.80
2023-05-25T20:40:23.486Z,9.97
2023-05-25T20:43:28.147Z,10.57
2023-05-25T20:46:30.246Z,15.03
2023-05-25T20:49:31.966Z,16.83
2023-05-25T20:52:33.922Z,10.67
2023-05-25T20:55:35.843Z,11.57
2023-05-25T20:58:42.024Z,10.57
2023-05-25T21:01:46.756Z,17.73
2023-05-25T21:04:48.773Z,11.90
2023-05-25T21:07:51.101Z,12.83
2023-05-25T21:10:52.943Z,12.33
2023-05-25T21:13:57.602Z,14.40
2023-05-25T21:16:59.427Z,9.60
2023-05-25T21:20:01.365Z,10.47
2023-05-25T21:23:03.025Z,15.15
2023-05-25T21:26:04.660Z,12.13
2023-05-25T21:29:07.751Z,9.47
2023-05-25T21:32:09.438Z,9.33
2023-05-25T21:35:11.183Z,9.63
2023-05-25T21:38:12.959Z,16.77
2023-05-25T21:41:14.586Z,10.53
2023-05-25T21:44:16.325Z,13.13
2023-05-25T21:47:18.044Z,10.30
2023-05-25T21:50:19.848Z,11.77
2023-05-25T21:53:21.530Z,11.53
2023-05-25T21:56:23.169Z,11.30
2023-05-25T21:59:24.783Z,11.97
2023-05-25T22:02:26.573Z,11.30
2023-05-25T22:05:28.312Z,11.97
2023-05-25T22:08:30.105Z,9.77
2023-05-25T22:11:31.806Z,14.07
2023-05-25T22:14:33.437Z,10.03
2023-05-25T22:17:35.133Z,12.50
2023-05-25T22:20:39.006Z,10.90
2023-05-25T22:23:40.767Z,8.90
2023-05-25T22:26:42.501Z,12.67
2023-05-25T22:29:44.210Z,12.93
2023-05-25T22:32:46.060Z,12.47
2023-05-25T22:35:47.815Z,10.37
2023-05-25T22:38:49.548Z,9.30
2023-05-25T22:41:51.340Z,10.43
2023-05-25T22:44:53.025Z,13.53
2023-05-25T22:47:54.756Z,9.90
2023-05-25T22:50:56.557Z,15.37
2023-05-25T22:53:58.192Z,9.33
2023-05-25T22:56:59.906Z,9.50
2023-05-25T23:00:01.774Z,11.10
2023-05-25T23:03:04.524Z,13.63
2023-05-25T23:06:06.549Z,12.47
2023-05-25T23:09:08.310Z,10.07
2023-05-25T23:12:10.003Z,11.70
2023-05-25T23:15:11.753Z,9.30
2023-05-25T23:18:13.384Z,15.93
2023-05-25T23:21:15.056Z,11.07
2023-05-25T23:24:16.678Z,9.40
2023-05-25T23:27:18.298Z,10.23
2023-05-25T23:30:19.912Z,11.43
2023-05-25T23:33:22.057Z,10.70
2023-05-25T23:36:26.240Z,9.60
2023-05-25T23:39:28.024Z,8.80
2023-05-25T23:42:29.685Z,11.40
2023-05-25T23:45:31.333Z,9.53
2023-05-25T23:48:32.989Z,8.70
2023-05-25T23:51:34.709Z,12.20
2023-05-25T23:54:36.469Z,9.93
2023-05-25T23:57:38.632Z,10.07
